sensor_id;sensor_type;location;lat;lon;timestamp;P1;durP1;ratioP1;P2;durP2;ratioP2
18853;SDS011;9556;49.374;19.446;2023-04-03T00:00:48;3.42;;;2.20;;
18853;SDS011;9556;49.374;19.446;2023-04-03T00:03:16;2.47;;;2.03;;
18853;SDS011;9556;49.374;19.446;2023-04-03T00:05:43;4.22;;;2.03;;
18853;SDS011;9556;49.374;19.446;2023-04-03T00:08:10;4.20;;;2.00;;
18853;SDS011;9556;49.374;19.446;2023-04-03T00:10:37;3.33;;;2.10;;
18853;SDS011;9556;49.374;19.446;2023-04-03T00:13:05;2.90;;;2.08;;
18853;SDS011;9556;49.374;19.446;2023-04-03T00:15:33;3.83;;;2.10;;
18853;SDS011;9556;49.374;19.446;2023-04-03T00:18:01;2.72;;;2.10;;
18853;SDS011;9556;49.374;19.446;2023-04-03T00:20:29;3.17;;;2.13;;
18853;SDS011;9556;49.374;19.446;2023-04-03T00:22:56;3.50;;;2.08;;
18853;SDS011;9556;49.374;19.446;2023-04-03T00:25:24;3.20;;;2.17;;
18853;SDS011;9556;49.374;19.446;2023-04-03T00:27:51;2.88;;;1.95;;
18853;SDS011;9556;49.374;19.446;2023-04-03T00:30:18;2.60;;;1.70;;
18853;SDS011;9556;49.374;19.446;2023-04-03T00:32:47;2.63;;;1.98;;
18853;SDS011;9556;49.374;19.446;2023-04-03T00:35:15;3.72;;;2.30;;
18853;SDS011;9556;49.374;19.446;2023-04-03T00:37:43;2.28;;;1.65;;
18853;SDS011;9556;49.374;19.446;2023-04-03T00:40:10;2.00;;;1.80;;
18853;SDS011;9556;49.374;19.446;2023-04-03T00:42:39;2.30;;;1.77;;
18853;SDS011;9556;49.374;19.446;2023-04-03T00:45:23;2.97;;;2.00;;
18853;SDS011;9556;49.374;19.446;2023-04-03T00:47:51;2.50;;;1.98;;
18853;SDS011;9556;49.374;19.446;2023-04-03T00:50:19;2.13;;;1.75;;
18853;SDS011;9556;49.374;19.446;2023-04-03T00:52:46;2.83;;;2.10;;
18853;SDS011;9556;49.374;19.446;2023-04-03T00:55:14;2.30;;;1.67;;
18853;SDS011;9556;49.374;19.446;2023-04-03T00:57:42;2.53;;;1.83;;
18853;SDS011;9556;49.374;19.446;2023-04-03T01:00:10;3.08;;;2.00;;
18853;SDS011;9556;49.374;19.446;2023-04-03T01:02:38;1.95;;;1.63;;
18853;SDS011;9556;49.374;19.446;2023-04-03T01:05:06;2.38;;;1.83;;
18853;SDS011;9556;49.374;19.446;2023-04-03T01:07:35;1.73;;;1.60;;
18853;SDS011;9556;49.374;19.446;2023-04-03T01:10:04;2.20;;;1.70;;
18853;SDS011;9556;49.374;19.446;2023-04-03T01:12:33;2.35;;;1.70;;
18853;SDS011;9556;49.374;19.446;2023-04-03T01:15:01;2.97;;;1.73;;
18853;SDS011;9556;49.374;19.446;2023-04-03T01:17:30;2.40;;;1.73;;
18853;SDS011;9556;49.374;19.446;2023-04-03T01:20:02;1.92;;;1.40;;
18853;SDS011;9556;49.374;19.446;2023-04-03T01:22:42;2.85;;;1.95;;
18853;SDS011;9556;49.374;19.446;2023-04-03T01:25:12;2.53;;;1.50;;
18853;SDS011;9556;49.374;19.446;2023-04-03T01:27:39;1.88;;;1.58;;
18853;SDS011;9556;49.374;19.446;2023-04-03T01:30:07;2.22;;;1.83;;
18853;SDS011;9556;49.374;19.446;2023-04-03T01:32:36;1.80;;;1.50;;
18853;SDS011;9556;49.374;19.446;2023-04-03T01:35:03;1.35;;;1.17;;
18853;SDS011;9556;49.374;19.446;2023-04-03T01:37:30;1.65;;;1.50;;
18853;SDS011;9556;49.374;19.446;2023-04-03T01:39:58;2.35;;;1.60;;
18853;SDS011;9556;49.374;19.446;2023-04-03T01:42:25;1.88;;;1.52;;
18853;SDS011;9556;49.374;19.446;2023-04-03T01:44:52;2.17;;;1.60;;
18853;SDS011;9556;49.374;19.446;2023-04-03T01:47:19;2.08;;;1.30;;
18853;SDS011;9556;49.374;19.446;2023-04-03T01:49:48;1.95;;;1.58;;
18853;SDS011;9556;49.374;19.446;2023-04-03T01:52:15;2.00;;;1.42;;
18853;SDS011;9556;49.374;19.446;2023-04-03T01:54:42;1.70;;;1.50;;
18853;SDS011;9556;49.374;19.446;2023-04-03T01:57:09;1.70;;;1.40;;
18853;SDS011;9556;49.374;19.446;2023-04-03T01:59:36;2.95;;;1.73;;
18853;SDS011;9556;49.374;19.446;2023-04-03T02:02:03;2.10;;;1.73;;
18853;SDS011;9556;49.374;19.446;2023-04-03T02:04:31;2.67;;;1.60;;
18853;SDS011;9556;49.374;19.446;2023-04-03T02:06:59;1.80;;;1.48;;
18853;SDS011;9556;49.374;19.446;2023-04-03T02:09:26;2.40;;;1.58;;
18853;SDS011;9556;49.374;19.446;2023-04-03T02:11:53;1.70;;;1.40;;
18853;SDS011;9556;49.374;19.446;2023-04-03T02:14:21;2.10;;;1.70;;
18853;SDS011;9556;49.374;19.446;2023-04-03T02:16:48;1.70;;;1.38;;
18853;SDS011;9556;49.374;19.446;2023-04-03T02:19:15;2.28;;;1.75;;
18853;SDS011;9556;49.374;19.446;2023-04-03T02:21:43;2.08;;;1.40;;
18853;SDS011;9556;49.374;19.446;2023-04-03T02:24:11;1.88;;;1.20;;
18853;SDS011;9556;49.374;19.446;2023-04-03T02:26:38;1.40;;;1.27;;
18853;SDS011;9556;49.374;19.446;2023-04-03T02:29:05;1.50;;;1.30;;
18853;SDS011;9556;49.374;19.446;2023-04-03T02:31:33;1.15;;;0.90;;
18853;SDS011;9556;49.374;19.446;2023-04-03T02:34:00;1.60;;;1.17;;
18853;SDS011;9556;49.374;19.446;2023-04-03T02:36:27;1.10;;;1.00;;
18853;SDS011;9556;49.374;19.446;2023-04-03T02:38:54;1.38;;;1.02;;
18853;SDS011;9556;49.374;19.446;2023-04-03T02:41:23;1.30;;;1.20;;
18853;SDS011;9556;49.374;19.446;2023-04-03T02:43:57;1.70;;;1.30;;
18853;SDS011;9556;49.374;19.446;2023-04-03T02:46:24;1.50;;;1.20;;
18853;SDS011;9556;49.374;19.446;2023-04-03T02:48:51;1.70;;;1.33;;
18853;SDS011;9556;49.374;19.446;2023-04-03T02:51:18;1.60;;;1.30;;
18853;SDS011;9556;49.374;19.446;2023-04-03T02:53:46;1.92;;;1.35;;
18853;SDS011;9556;49.374;19.446;2023-04-03T02:56:13;1.55;;;1.40;;
18853;SDS011;9556;49.374;19.446;2023-04-03T02:58:41;1.30;;;1.10;;
18853;SDS011;9556;49.374;19.446;2023-04-03T03:01:09;1.95;;;1.35;;
18853;SDS011;9556;49.374;19.446;2023-04-03T03:03:36;1.25;;;1.00;;
18853;SDS011;9556;49.374;19.446;2023-04-03T03:06:03;1.63;;;1.23;;
18853;SDS011;9556;49.374;19.446;2023-04-03T03:08:31;1.38;;;1.15;;
18853;SDS011;9556;49.374;19.446;2023-04-03T03:10:58;1.70;;;1.55;;
18853;SDS011;9556;49.374;19.446;2023-04-03T03:13:25;0.95;;;0.90;;
18853;SDS011;9556;49.374;19.446;2023-04-03T03:15:54;1.58;;;1.15;;
18853;SDS011;9556;49.374;19.446;2023-04-03T03:18:21;1.70;;;1.00;;
18853;SDS011;9556;49.374;19.446;2023-04-03T03:20:50;1.60;;;1.27;;
18853;SDS011;9556;49.374;19.446;2023-04-03T03:23:18;1.65;;;1.30;;
18853;SDS011;9556;49.374;19.446;2023-04-03T03:25:45;1.67;;;1.20;;
18853;SDS011;9556;49.374;19.446;2023-04-03T03:28:12;1.38;;;1.10;;
18853;SDS011;9556;49.374;19.446;2023-04-03T03:30:39;1.30;;;1.02;;
18853;SDS011;9556;49.374;19.446;2023-04-03T03:33:08;1.45;;;1.08;;
18853;SDS011;9556;49.374;19.446;2023-04-03T03:35:35;1.20;;;1.00;;
18853;SDS011;9556;49.374;19.446;2023-04-03T03:38:02;1.20;;;1.10;;
18853;SDS011;9556;49.374;19.446;2023-04-03T03:40:31;2.35;;;1.20;;
18853;SDS011;9556;49.374;19.446;2023-04-03T03:42:58;1.10;;;1.00;;
18853;SDS011;9556;49.374;19.446;2023-04-03T03:45:25;1.42;;;1.00;;
18853;SDS011;9556;49.374;19.446;2023-04-03T03:47:52;1.40;;;1.13;;
18853;SDS011;9556;49.374;19.446;2023-04-03T03:50:21;1.35;;;1.02;;
18853;SDS011;9556;49.374;19.446;2023-04-03T03:52:50;1.75;;;1.15;;
18853;SDS011;9556;49.374;19.446;2023-04-03T03:55:17;1.42;;;0.98;;
18853;SDS011;9556;49.374;19.446;2023-04-03T03:57:44;1.20;;;1.10;;
18853;SDS011;9556;49.374;19.446;2023-04-03T04:00:12;1.95;;;1.10;;
18853;SDS011;9556;49.374;19.446;2023-04-03T04:02:39;1.50;;;1.00;;
18853;SDS011;9556;49.374;19.446;2023-04-03T04:05:06;1.60;;;1.10;;
18853;SDS011;9556;49.374;19.446;2023-04-03T04:07:35;1.48;;;1.02;;
18853;SDS011;9556;49.374;19.446;2023-04-03T04:10:02;1.23;;;1.05;;
18853;SDS011;9556;49.374;19.446;2023-04-03T04:12:29;1.20;;;1.00;;
18853;SDS011;9556;49.374;19.446;2023-04-03T04:14:57;2.20;;;1.30;;
18853;SDS011;9556;49.374;19.446;2023-04-03T04:17:24;1.10;;;1.00;;
18853;SDS011;9556;49.374;19.446;2023-04-03T04:19:51;1.40;;;1.23;;
18853;SDS011;9556;49.374;19.446;2023-04-03T04:22:18;1.70;;;1.20;;
18853;SDS011;9556;49.374;19.446;2023-04-03T04:24:47;1.85;;;1.30;;
18853;SDS011;9556;49.374;19.446;2023-04-03T04:27:14;1.77;;;1.10;;
18853;SDS011;9556;49.374;19.446;2023-04-03T04:29:41;2.25;;;1.50;;
18853;SDS011;9556;49.374;19.446;2023-04-03T04:32:08;1.98;;;1.42;;
18853;SDS011;9556;49.374;19.446;2023-04-03T04:34:36;2.10;;;1.50;;
18853;SDS011;9556;49.374;19.446;2023-04-03T04:37:03;2.35;;;1.60;;
18853;SDS011;9556;49.374;19.446;2023-04-03T04:39:30;1.60;;;1.30;;
18853;SDS011;9556;49.374;19.446;2023-04-03T04:41:59;1.83;;;1.40;;
18853;SDS011;9556;49.374;19.446;2023-04-03T04:44:26;1.70;;;1.20;;
18853;SDS011;9556;49.374;19.446;2023-04-03T04:46:53;4.05;;;1.10;;
18853;SDS011;9556;49.374;19.446;2023-04-03T04:49:20;1.25;;;0.98;;
18853;SDS011;9556;49.374;19.446;2023-04-03T04:51:47;1.45;;;1.02;;
18853;SDS011;9556;49.374;19.446;2023-04-03T04:54:14;1.35;;;1.00;;
18853;SDS011;9556;49.374;19.446;2023-04-03T04:56:41;3.08;;;1.10;;
18853;SDS011;9556;49.374;19.446;2023-04-03T04:59:10;2.00;;;0.82;;
18853;SDS011;9556;49.374;19.446;2023-04-03T05:01:37;1.33;;;0.98;;
18853;SDS011;9556;49.374;19.446;2023-04-03T05:04:05;1.27;;;0.90;;
18853;SDS011;9556;49.374;19.446;2023-04-03T05:06:32;2.00;;;1.13;;
18853;SDS011;9556;49.374;19.446;2023-04-03T05:09:00;3.42;;;1.13;;
18853;SDS011;9556;49.374;19.446;2023-04-03T05:11:27;2.47;;;0.93;;
18853;SDS011;9556;49.374;19.446;2023-04-03T05:13:54;5.78;;;1.00;;
18853;SDS011;9556;49.374;19.446;2023-04-03T05:16:23;0.93;;;0.70;;
18853;SDS011;9556;49.374;19.446;2023-04-03T05:18:50;4.60;;;1.15;;
18853;SDS011;9556;49.374;19.446;2023-04-03T05:21:17;1.83;;;1.10;;
18853;SDS011;9556;49.374;19.446;2023-04-03T05:23:46;3.17;;;1.00;;
18853;SDS011;9556;49.374;19.446;2023-04-03T05:26:14;4.63;;;1.10;;
18853;SDS011;9556;49.374;19.446;2023-04-03T05:28:41;3.20;;;1.25;;
18853;SDS011;9556;49.374;19.446;2023-04-03T05:31:08;18.10;;;1.30;;
18853;SDS011;9556;49.374;19.446;2023-04-03T05:33:36;1.73;;;1.00;;
18853;SDS011;9556;49.374;19.446;2023-04-03T05:36:04;2.15;;;1.02;;
18853;SDS011;9556;49.374;19.446;2023-04-03T05:38:31;1.65;;;1.02;;
18853;SDS011;9556;49.374;19.446;2023-04-03T05:40:59;5.25;;;1.05;;
18853;SDS011;9556;49.374;19.446;2023-04-03T05:43:26;1.80;;;1.30;;
18853;SDS011;9556;49.374;19.446;2023-04-03T05:45:53;5.32;;;1.23;;
18853;SDS011;9556;49.374;19.446;2023-04-03T05:48:20;8.30;;;1.23;;
18853;SDS011;9556;49.374;19.446;2023-04-03T05:50:49;3.38;;;1.20;;
18853;SDS011;9556;49.374;19.446;2023-04-03T05:53:17;3.83;;;1.10;;
18853;SDS011;9556;49.374;19.446;2023-04-03T05:55:44;3.63;;;1.17;;
18853;SDS011;9556;49.374;19.446;2023-04-03T05:58:11;4.60;;;1.20;;
18853;SDS011;9556;49.374;19.446;2023-04-03T06:00:39;2.45;;;1.08;;
18853;SDS011;9556;49.374;19.446;2023-04-03T06:03:06;2.25;;;0.93;;
18853;SDS011;9556;49.374;19.446;2023-04-03T06:05:33;5.20;;;0.90;;
18853;SDS011;9556;49.374;19.446;2023-04-03T06:08:02;4.50;;;1.10;;
18853;SDS011;9556;49.374;19.446;2023-04-03T06:10:30;1.27;;;0.85;;
18853;SDS011;9556;49.374;19.446;2023-04-03T06:12:58;2.78;;;1.15;;
18853;SDS011;9556;49.374;19.446;2023-04-03T06:15:25;2.60;;;1.27;;
18853;SDS011;9556;49.374;19.446;2023-04-03T06:17:53;3.70;;;1.52;;
18853;SDS011;9556;49.374;19.446;2023-04-03T06:20:20;3.92;;;1.10;;
18853;SDS011;9556;49.374;19.446;2023-04-03T06:22:47;3.53;;;1.17;;
18853;SDS011;9556;49.374;19.446;2023-04-03T06:25:17;2.95;;;0.98;;
18853;SDS011;9556;49.374;19.446;2023-04-03T06:27:44;1.88;;;0.80;;
18853;SDS011;9556;49.374;19.446;2023-04-03T06:30:12;4.18;;;0.90;;
18853;SDS011;9556;49.374;19.446;2023-04-03T06:32:39;2.10;;;1.00;;
18853;SDS011;9556;49.374;19.446;2023-04-03T06:35:08;2.13;;;1.10;;
18853;SDS011;9556;49.374;19.446;2023-04-03T06:37:35;1.08;;;0.90;;
18853;SDS011;9556;49.374;19.446;2023-04-03T06:40:03;2.58;;;1.05;;
18853;SDS011;9556;49.374;19.446;2023-04-03T06:42:31;3.60;;;1.23;;
18853;SDS011;9556;49.374;19.446;2023-04-03T06:44:59;3.53;;;1.20;;
18853;SDS011;9556;49.374;19.446;2023-04-03T06:47:26;1.90;;;0.85;;
18853;SDS011;9556;49.374;19.446;2023-04-03T06:49:53;3.90;;;1.17;;
18853;SDS011;9556;49.374;19.446;2023-04-03T06:52:21;4.63;;;1.52;;
18853;SDS011;9556;49.374;19.446;2023-04-03T06:54:48;5.85;;;0.98;;
18853;SDS011;9556;49.374;19.446;2023-04-03T06:57:21;11.60;;;1.60;;
18853;SDS011;9556;49.374;19.446;2023-04-03T06:59:50;4.97;;;1.30;;
18853;SDS011;9556;49.374;19.446;2023-04-03T07:02:18;4.65;;;1.10;;
18853;SDS011;9556;49.374;19.446;2023-04-03T07:04:45;3.67;;;1.20;;
18853;SDS011;9556;49.374;19.446;2023-04-03T07:07:12;5.47;;;1.23;;
18853;SDS011;9556;49.374;19.446;2023-04-03T07:09:40;3.95;;;1.10;;
18853;SDS011;9556;49.374;19.446;2023-04-03T07:12:08;4.60;;;1.23;;
18853;SDS011;9556;49.374;19.446;2023-04-03T07:14:35;3.53;;;1.10;;
18853;SDS011;9556;49.374;19.446;2023-04-03T07:17:04;4.65;;;1.25;;
18853;SDS011;9556;49.374;19.446;2023-04-03T07:19:31;3.58;;;1.13;;
18853;SDS011;9556;49.374;19.446;2023-04-03T07:21:59;2.80;;;1.30;;
18853;SDS011;9556;49.374;19.446;2023-04-03T07:24:26;3.42;;;1.58;;
18853;SDS011;9556;49.374;19.446;2023-04-03T07:26:53;5.13;;;1.52;;
18853;SDS011;9556;49.374;19.446;2023-04-03T07:29:20;2.08;;;1.20;;
18853;SDS011;9556;49.374;19.446;2023-04-03T07:31:47;3.35;;;1.73;;
18853;SDS011;9556;49.374;19.446;2023-04-03T07:34:16;9.80;;;4.50;;
18853;SDS011;9556;49.374;19.446;2023-04-03T07:36:43;6.47;;;2.78;;
18853;SDS011;9556;49.374;19.446;2023-04-03T07:39:11;4.28;;;1.77;;
18853;SDS011;9556;49.374;19.446;2023-04-03T07:41:38;3.90;;;1.83;;
18853;SDS011;9556;49.374;19.446;2023-04-03T07:44:05;4.22;;;1.67;;
18853;SDS011;9556;49.374;19.446;2023-04-03T07:46:34;2.35;;;1.50;;
18853;SDS011;9556;49.374;19.446;2023-04-03T07:49:01;7.47;;;1.80;;
18853;SDS011;9556;49.374;19.446;2023-04-03T07:51:30;2.05;;;1.35;;
18853;SDS011;9556;49.374;19.446;2023-04-03T07:53:57;3.40;;;1.60;;
18853;SDS011;9556;49.374;19.446;2023-04-03T07:56:24;2.03;;;1.30;;
18853;SDS011;9556;49.374;19.446;2023-04-03T07:58:51;3.28;;;1.60;;
18853;SDS011;9556;49.374;19.446;2023-04-03T08:01:19;2.15;;;1.40;;
18853;SDS011;9556;49.374;19.446;2023-04-03T08:03:46;3.58;;;1.33;;
18853;SDS011;9556;49.374;19.446;2023-04-03T08:06:14;2.88;;;1.40;;
18853;SDS011;9556;49.374;19.446;2023-04-03T08:08:42;2.90;;;1.48;;
18853;SDS011;9556;49.374;19.446;2023-04-03T08:11:11;2.00;;;1.20;;
18853;SDS011;9556;49.374;19.446;2023-04-03T08:13:38;2.47;;;1.30;;
18853;SDS011;9556;49.374;19.446;2023-04-03T08:16:07;4.45;;;1.48;;
18853;SDS011;9556;49.374;19.446;2023-04-03T08:18:34;6.88;;;1.33;;
18853;SDS011;9556;49.374;19.446;2023-04-03T08:21:04;2.30;;;1.25;;
18853;SDS011;9556;49.374;19.446;2023-04-03T08:23:32;5.72;;;1.35;;
18853;SDS011;9556;49.374;19.446;2023-04-03T08:26:04;1.83;;;0.90;;
18853;SDS011;9556;49.374;19.446;2023-04-03T08:28:31;3.03;;;0.93;;
18853;SDS011;9556;49.374;19.446;2023-04-03T08:31:02;3.42;;;1.13;;
18853;SDS011;9556;49.374;19.446;2023-04-03T08:33:29;2.03;;;1.10;;
18853;SDS011;9556;49.374;19.446;2023-04-03T08:35:56;1.77;;;1.05;;
18853;SDS011;9556;49.374;19.446;2023-04-03T08:38:23;1.98;;;1.05;;
18853;SDS011;9556;49.374;19.446;2023-04-03T08:41:00;2.13;;;1.00;;
18853;SDS011;9556;49.374;19.446;2023-04-03T08:43:30;1.17;;;0.80;;
18853;SDS011;9556;49.374;19.446;2023-04-03T08:46:00;2.00;;;1.10;;
18853;SDS011;9556;49.374;19.446;2023-04-03T08:48:30;2.60;;;1.08;;
18853;SDS011;9556;49.374;19.446;2023-04-03T08:50:59;2.08;;;1.15;;
18853;SDS011;9556;49.374;19.446;2023-04-03T08:53:28;1.90;;;1.00;;
18853;SDS011;9556;49.374;19.446;2023-04-03T08:55:57;1.75;;;1.10;;
18853;SDS011;9556;49.374;19.446;2023-04-03T08:58:26;2.00;;;1.15;;
18853;SDS011;9556;49.374;19.446;2023-04-03T09:00:56;2.90;;;1.10;;
18853;SDS011;9556;49.374;19.446;2023-04-03T09:03:29;1.38;;;0.90;;
18853;SDS011;9556;49.374;19.446;2023-04-03T09:05:57;2.00;;;1.13;;
18853;SDS011;9556;49.374;19.446;2023-04-03T09:08:27;1.70;;;1.10;;
18853;SDS011;9556;49.374;19.446;2023-04-03T09:11:00;3.08;;;1.00;;
18853;SDS011;9556;49.374;19.446;2023-04-03T09:13:34;2.72;;;1.08;;
18853;SDS011;9556;49.374;19.446;2023-04-03T09:16:03;7.38;;;1.40;;
18853;SDS011;9556;49.374;19.446;2023-04-03T09:18:35;8.70;;;1.40;;
18853;SDS011;9556;49.374;19.446;2023-04-03T09:21:07;1.73;;;1.02;;
18853;SDS011;9556;49.374;19.446;2023-04-03T09:23:39;1.63;;;1.00;;
18853;SDS011;9556;49.374;19.446;2023-04-03T09:26:09;2.35;;;1.02;;
18853;SDS011;9556;49.374;19.446;2023-04-03T09:28:38;1.55;;;1.00;;
18853;SDS011;9556;49.374;19.446;2023-04-03T09:31:11;1.27;;;0.90;;
18853;SDS011;9556;49.374;19.446;2023-04-03T09:33:41;1.00;;;0.85;;
18853;SDS011;9556;49.374;19.446;2023-04-03T09:36:09;2.17;;;0.93;;
18853;SDS011;9556;49.374;19.446;2023-04-03T09:38:36;1.00;;;0.90;;
18853;SDS011;9556;49.374;19.446;2023-04-03T09:41:05;2.45;;;0.88;;
18853;SDS011;9556;49.374;19.446;2023-04-03T09:43:35;6.78;;;1.00;;
18853;SDS011;9556;49.374;19.446;2023-04-03T09:46:21;5.05;;;1.13;;
18853;SDS011;9556;49.374;19.446;2023-04-03T09:48:51;1.60;;;0.82;;
18853;SDS011;9556;49.374;19.446;2023-04-03T09:51:23;1.90;;;0.93;;
18853;SDS011;9556;49.374;19.446;2023-04-03T09:53:52;4.53;;;0.90;;
18853;SDS011;9556;49.374;19.446;2023-04-03T09:56:21;2.47;;;1.00;;
18853;SDS011;9556;49.374;19.446;2023-04-03T09:58:49;4.93;;;0.98;;
18853;SDS011;9556;49.374;19.446;2023-04-03T10:01:25;1.65;;;0.90;;
18853;SDS011;9556;49.374;19.446;2023-04-03T10:04:06;2.88;;;1.05;;
18853;SDS011;9556;49.374;19.446;2023-04-03T10:06:34;4.25;;;1.20;;
18853;SDS011;9556;49.374;19.446;2023-04-03T10:09:03;3.60;;;1.20;;
18853;SDS011;9556;49.374;19.446;2023-04-03T10:11:30;2.40;;;1.20;;
18853;SDS011;9556;49.374;19.446;2023-04-03T10:13:58;3.70;;;1.00;;
18853;SDS011;9556;49.374;19.446;2023-04-03T10:16:28;1.80;;;1.17;;
18853;SDS011;9556;49.374;19.446;2023-04-03T10:19:03;4.03;;;1.10;;
18853;SDS011;9556;49.374;19.446;2023-04-03T10:21:34;3.85;;;2.30;;
18853;SDS011;9556;49.374;19.446;2023-04-03T10:24:07;2.47;;;1.05;;
18853;SDS011;9556;49.374;19.446;2023-04-03T10:26:37;1.83;;;1.20;;
18853;SDS011;9556;49.374;19.446;2023-04-03T10:29:10;1.73;;;1.25;;
18853;SDS011;9556;49.374;19.446;2023-04-03T10:31:41;1.27;;;0.90;;
18853;SDS011;9556;49.374;19.446;2023-04-03T10:34:12;1.52;;;0.90;;
18853;SDS011;9556;49.374;19.446;2023-04-03T10:36:43;2.67;;;1.27;;
18853;SDS011;9556;49.374;19.446;2023-04-03T10:39:15;5.63;;;1.30;;
18853;SDS011;9556;49.374;19.446;2023-04-03T10:41:51;4.70;;;1.15;;
18853;SDS011;9556;49.374;19.446;2023-04-03T10:44:23;2.90;;;1.95;;
18853;SDS011;9556;49.374;19.446;2023-04-03T10:46:56;4.43;;;1.50;;
18853;SDS011;9556;49.374;19.446;2023-04-03T10:49:31;3.20;;;1.70;;
18853;SDS011;9556;49.374;19.446;2023-04-03T10:52:00;2.85;;;1.67;;
18853;SDS011;9556;49.374;19.446;2023-04-03T10:54:31;1.75;;;1.30;;
18853;SDS011;9556;49.374;19.446;2023-04-03T10:57:00;1.60;;;1.10;;
18853;SDS011;9556;49.374;19.446;2023-04-03T10:59:29;2.42;;;1.23;;
18853;SDS011;9556;49.374;19.446;2023-04-03T11:02:00;2.63;;;1.38;;
18853;SDS011;9556;49.374;19.446;2023-04-03T11:04:29;3.35;;;1.73;;
18853;SDS011;9556;49.374;19.446;2023-04-03T11:06:59;1.77;;;1.30;;
18853;SDS011;9556;49.374;19.446;2023-04-03T11:09:27;2.13;;;1.30;;
18853;SDS011;9556;49.374;19.446;2023-04-03T11:11:57;2.05;;;1.30;;
18853;SDS011;9556;49.374;19.446;2023-04-03T11:14:27;2.03;;;1.08;;
18853;SDS011;9556;49.374;19.446;2023-04-03T11:17:02;2.55;;;1.35;;
18853;SDS011;9556;49.374;19.446;2023-04-03T11:19:33;2.80;;;1.20;;
18853;SDS011;9556;49.374;19.446;2023-04-03T11:22:03;1.70;;;1.13;;
18853;SDS011;9556;49.374;19.446;2023-04-03T11:24:32;1.30;;;1.00;;
18853;SDS011;9556;49.374;19.446;2023-04-03T11:27:00;1.88;;;1.20;;
18853;SDS011;9556;49.374;19.446;2023-04-03T11:29:30;1.60;;;1.20;;
18853;SDS011;9556;49.374;19.446;2023-04-03T11:32:04;2.63;;;1.27;;
18853;SDS011;9556;49.374;19.446;2023-04-03T11:34:34;2.00;;;1.20;;
18853;SDS011;9556;49.374;19.446;2023-04-03T11:37:05;2.00;;;1.25;;
18853;SDS011;9556;49.374;19.446;2023-04-03T11:39:37;1.65;;;1.10;;
18853;SDS011;9556;49.374;19.446;2023-04-03T11:42:15;1.88;;;1.20;;
18853;SDS011;9556;49.374;19.446;2023-04-03T11:44:42;1.40;;;1.20;;
18853;SDS011;9556;49.374;19.446;2023-04-03T11:47:11;1.63;;;1.20;;
18853;SDS011;9556;49.374;19.446;2023-04-03T11:49:52;1.80;;;1.30;;
18853;SDS011;9556;49.374;19.446;2023-04-03T11:55:02;2.30;;;1.40;;
18853;SDS011;9556;49.374;19.446;2023-04-03T11:58:02;2.45;;;1.40;;
18853;SDS011;9556;49.374;19.446;2023-04-03T12:00:46;2.80;;;1.42;;
18853;SDS011;9556;49.374;19.446;2023-04-03T12:08:50;1.95;;;1.60;;
18853;SDS011;9556;49.374;19.446;2023-04-03T12:11:23;1.73;;;1.40;;
18853;SDS011;9556;49.374;19.446;2023-04-03T12:14:04;1.92;;;1.38;;
18853;SDS011;9556;49.374;19.446;2023-04-03T12:16:32;2.97;;;1.30;;
18853;SDS011;9556;49.374;19.446;2023-04-03T12:19:00;1.55;;;1.02;;
18853;SDS011;9556;49.374;19.446;2023-04-03T12:24:24;2.13;;;1.10;;
18853;SDS011;9556;49.374;19.446;2023-04-03T12:27:01;1.42;;;0.98;;
18853;SDS011;9556;49.374;19.446;2023-04-03T12:29:32;1.20;;;0.98;;
18853;SDS011;9556;49.374;19.446;2023-04-03T12:32:04;1.63;;;1.10;;
18853;SDS011;9556;49.374;19.446;2023-04-03T12:34:45;2.35;;;1.60;;
18853;SDS011;9556;49.374;19.446;2023-04-03T12:37:19;2.13;;;1.40;;
18853;SDS011;9556;49.374;19.446;2023-04-03T12:39:52;1.90;;;1.20;;
18853;SDS011;9556;49.374;19.446;2023-04-03T12:42:28;1.60;;;1.15;;
18853;SDS011;9556;49.374;19.446;2023-04-03T12:44:58;1.52;;;1.17;;
18853;SDS011;9556;49.374;19.446;2023-04-03T12:47:31;2.30;;;1.10;;
18853;SDS011;9556;49.374;19.446;2023-04-03T12:50:01;2.58;;;1.17;;
18853;SDS011;9556;49.374;19.446;2023-04-03T12:52:33;1.33;;;1.15;;
18853;SDS011;9556;49.374;19.446;2023-04-03T12:55:03;2.15;;;1.40;;
18853;SDS011;9556;49.374;19.446;2023-04-03T12:57:35;1.88;;;1.35;;
18853;SDS011;9556;49.374;19.446;2023-04-03T13:02:44;2.03;;;1.50;;
18853;SDS011;9556;49.374;19.446;2023-04-03T13:05:13;1.75;;;1.25;;
18853;SDS011;9556;49.374;19.446;2023-04-03T13:07:41;3.33;;;1.70;;
18853;SDS011;9556;49.374;19.446;2023-04-03T13:10:15;2.08;;;1.63;;
18853;SDS011;9556;49.374;19.446;2023-04-03T13:12:46;2.17;;;1.65;;
18853;SDS011;9556;49.374;19.446;2023-04-03T13:15:14;1.75;;;1.23;;
18853;SDS011;9556;49.374;19.446;2023-04-03T13:17:41;2.15;;;1.40;;
18853;SDS011;9556;49.374;19.446;2023-04-03T13:20:09;3.47;;;2.17;;
18853;SDS011;9556;49.374;19.446;2023-04-03T13:22:38;4.80;;;3.03;;
18853;SDS011;9556;49.374;19.446;2023-04-03T13:25:09;2.47;;;1.60;;
18853;SDS011;9556;49.374;19.446;2023-04-03T13:27:38;1.90;;;1.40;;
18853;SDS011;9556;49.374;19.446;2023-04-03T13:30:17;2.22;;;1.42;;
18853;SDS011;9556;49.374;19.446;2023-04-03T13:32:45;2.95;;;1.30;;
18853;SDS011;9556;49.374;19.446;2023-04-03T13:35:28;4.97;;;2.50;;
18853;SDS011;9556;49.374;19.446;2023-04-03T13:37:56;3.45;;;1.98;;
18853;SDS011;9556;49.374;19.446;2023-04-03T13:40:23;4.95;;;2.53;;
18853;SDS011;9556;49.374;19.446;2023-04-03T13:42:59;4.25;;;2.28;;
18853;SDS011;9556;49.374;19.446;2023-04-03T13:45:27;4.95;;;1.65;;
18853;SDS011;9556;49.374;19.446;2023-04-03T13:48:06;6.55;;;3.55;;
18853;SDS011;9556;49.374;19.446;2023-04-03T13:50:41;3.58;;;2.28;;
18853;SDS011;9556;49.374;19.446;2023-04-03T13:53:16;4.45;;;2.92;;
18853;SDS011;9556;49.374;19.446;2023-04-03T13:55:52;3.63;;;2.60;;
18853;SDS011;9556;49.374;19.446;2023-04-03T13:58:23;3.42;;;1.70;;
18853;SDS011;9556;49.374;19.446;2023-04-03T14:00:51;2.40;;;1.63;;
18853;SDS011;9556;49.374;19.446;2023-04-03T14:03:20;2.83;;;1.70;;
18853;SDS011;9556;49.374;19.446;2023-04-03T14:05:48;1.90;;;1.58;;
18853;SDS011;9556;49.374;19.446;2023-04-03T14:08:15;2.38;;;1.70;;
18853;SDS011;9556;49.374;19.446;2023-04-03T14:10:42;2.47;;;1.80;;
18853;SDS011;9556;49.374;19.446;2023-04-03T14:13:11;3.13;;;1.75;;
18853;SDS011;9556;49.374;19.446;2023-04-03T14:15:39;6.38;;;1.90;;
18853;SDS011;9556;49.374;19.446;2023-04-03T14:18:09;3.58;;;2.10;;
18853;SDS011;9556;49.374;19.446;2023-04-03T14:20:36;4.78;;;1.98;;
18853;SDS011;9556;49.374;19.446;2023-04-03T14:23:04;3.72;;;1.90;;
18853;SDS011;9556;49.374;19.446;2023-04-03T14:25:31;2.95;;;1.40;;
18853;SDS011;9556;49.374;19.446;2023-04-03T14:27:59;5.97;;;1.85;;
18853;SDS011;9556;49.374;19.446;2023-04-03T14:30:27;5.20;;;1.73;;
18853;SDS011;9556;49.374;19.446;2023-04-03T14:32:56;4.40;;;1.70;;
18853;SDS011;9556;49.374;19.446;2023-04-03T14:35:24;9.30;;;1.83;;
18853;SDS011;9556;49.374;19.446;2023-04-03T14:37:51;2.92;;;1.70;;
18853;SDS011;9556;49.374;19.446;2023-04-03T14:40:20;2.63;;;1.80;;
18853;SDS011;9556;49.374;19.446;2023-04-03T14:42:47;3.35;;;1.67;;
18853;SDS011;9556;49.374;19.446;2023-04-03T14:45:15;2.75;;;1.60;;
18853;SDS011;9556;49.374;19.446;2023-04-03T14:47:44;7.50;;;1.90;;
18853;SDS011;9556;49.374;19.446;2023-04-03T14:50:16;3.75;;;1.48;;
18853;SDS011;9556;49.374;19.446;2023-04-03T14:52:46;6.13;;;1.63;;
18853;SDS011;9556;49.374;19.446;2023-04-03T14:55:14;5.53;;;1.70;;
18853;SDS011;9556;49.374;19.446;2023-04-03T14:57:42;4.88;;;1.70;;
18853;SDS011;9556;49.374;19.446;2023-04-03T15:00:12;3.13;;;1.77;;
18853;SDS011;9556;49.374;19.446;2023-04-03T15:02:40;2.72;;;1.60;;
18853;SDS011;9556;49.374;19.446;2023-04-03T15:05:07;5.30;;;1.92;;
18853;SDS011;9556;49.374;19.446;2023-04-03T15:07:37;2.85;;;1.90;;
18853;SDS011;9556;49.374;19.446;2023-04-03T15:10:14;3.83;;;1.77;;
18853;SDS011;9556;49.374;19.446;2023-04-03T15:12:41;3.58;;;1.88;;